sensor_id;sensor_type;location;lat;lon;timestamp;pressure;altitude;pressure_sealevel;temperature;humidity
65013;BME280;51715;39.432;-77.518;2023-03-21T00:02:20;100426.86;;;9.59;20.37
65013;BME280;51715;39.432;-77.518;2023-03-21T00:04:48;100430.15;;;9.05;20.43
65013;BME280;51715;39.432;-77.518;2023-03-21T00:07:17;100436.37;;;9.31;20.60
65013;BME280;51715;39.432;-77.518;2023-03-21T00:09:45;100436.09;;;9.16;20.20
65013;BME280;51715;39.432;-77.518;2023-03-21T00:12:14;100437.51;;;9.38;20.55
65013;BME280;51715;39.432;-77.518;2023-03-21T00:14:43;100442.13;;;9.27;21.06
65013;BME280;51715;39.432;-77.518;2023-03-21T00:17:11;100443.51;;;8.93;21.47
65013;BME280;51715;39.432;-77.518;2023-03-21T00:19:40;100442.66;;;8.65;21.19
65013;BME280;51715;39.432;-77.518;2023-03-21T00:22:09;100441.51;;;8.73;21.59
65013;BME280;51715;39.432;-77.518;2023-03-21T00:24:37;100442.56;;;8.48;21.97
65013;BME280;51715;39.432;-77.518;2023-03-21T00:27:06;100442.42;;;8.62;21.72
65013;BME280;51715;39.432;-77.518;2023-03-21T00:29:35;100439.22;;;8.57;21.83
65013;BME280;51715;39.432;-77.518;2023-03-21T00:32:04;100438.04;;;8.77;21.49
65013;BME280;51715;39.432;-77.518;2023-03-21T00:34:32;100437.11;;;8.51;21.26
65013;BME280;51715;39.432;-77.518;2023-03-21T00:37:00;100440.38;;;8.49;21.26
65013;BME280;51715;39.432;-77.518;2023-03-21T00:39:28;100446.41;;;8.44;21.52
65013;BME280;51715;39.432;-77.518;2023-03-21T00:41:57;100449.42;;;8.35;21.21
65013;BME280;51715;39.432;-77.518;2023-03-21T00:44:25;100452.39;;;8.22;21.30
65013;BME280;51715;39.432;-77.518;2023-03-21T00:46:54;100452.90;;;8.57;21.55
65013;BME280;51715;39.432;-77.518;2023-03-21T00:49:22;100455.74;;;8.43;21.86
65013;BME280;51715;39.432;-77.518;2023-03-21T00:51:50;100460.70;;;8.32;21.98
65013;BME280;51715;39.432;-77.518;2023-03-21T00:54:19;100463.76;;;8.21;21.89
65013;BME280;51715;39.432;-77.518;2023-03-21T00:56:48;100466.41;;;8.10;21.93
65013;BME280;51715;39.432;-77.518;2023-03-21T00:59:17;100462.60;;;7.99;22.12
65013;BME280;51715;39.432;-77.518;2023-03-21T01:01:45;100463.27;;;7.88;22.20
65013;BME280;51715;39.432;-77.518;2023-03-21T01:04:14;100465.52;;;7.77;22.04
65013;BME280;51715;39.432;-77.518;2023-03-21T01:06:43;100469.38;;;7.68;22.14
65013;BME280;51715;39.432;-77.518;2023-03-21T01:09:14;100469.35;;;7.59;22.68
65013;BME280;51715;39.432;-77.518;2023-03-21T01:11:44;100474.58;;;7.20;23.05
65013;BME280;51715;39.432;-77.518;2023-03-21T01:14:14;100477.31;;;7.31;23.55
65013;BME280;51715;39.432;-77.518;2023-03-21T01:16:43;100483.51;;;7.34;24.04
65013;BME280;51715;39.432;-77.518;2023-03-21T01:19:14;100486.14;;;7.38;24.10
65013;BME280;51715;39.432;-77.518;2023-03-21T01:21:43;100483.76;;;7.09;23.72
65013;BME280;51715;39.432;-77.518;2023-03-21T01:24:12;100486.14;;;6.92;24.33
65013;BME280;51715;39.432;-77.518;2023-03-21T01:26:40;100487.51;;;6.77;24.46
65013;BME280;51715;39.432;-77.518;2023-03-21T01:29:10;100489.99;;;6.71;24.50
65013;BME280;51715;39.432;-77.518;2023-03-21T01:31:39;100493.70;;;6.68;24.27
65013;BME280;51715;39.432;-77.518;2023-03-21T01:34:06;100495.33;;;6.87;24.07
65013;BME280;51715;39.432;-77.518;2023-03-21T01:36:35;100494.19;;;6.80;23.91
65013;BME280;51715;39.432;-77.518;2023-03-21T01:39:04;100496.90;;;6.38;24.77
65013;BME280;51715;39.432;-77.518;2023-03-21T01:41:35;100498.75;;;6.51;24.81
65013;BME280;51715;39.432;-77.518;2023-03-21T01:44:04;100501.27;;;6.55;24.41
65013;BME280;51715;39.432;-77.518;2023-03-21T01:46:38;100504.92;;;6.55;24.17
65013;BME280;51715;39.432;-77.518;2023-03-21T01:49:11;100509.61;;;6.49;24.64
65013;BME280;51715;39.432;-77.518;2023-03-21T01:51:44;100510.39;;;6.32;24.83
65013;BME280;51715;39.432;-77.518;2023-03-21T01:54:19;100509.20;;;6.31;25.85
65013;BME280;51715;39.432;-77.518;2023-03-21T01:56:49;100515.78;;;6.16;25.42
65013;BME280;51715;39.432;-77.518;2023-03-21T01:59:21;100519.24;;;5.96;25.03
65013;BME280;51715;39.432;-77.518;2023-03-21T02:01:52;100519.03;;;5.96;24.59
65013;BME280;51715;39.432;-77.518;2023-03-21T02:04:24;100515.44;;;6.47;24.65
65013;BME280;51715;39.432;-77.518;2023-03-21T02:06:54;100513.19;;;5.98;24.81
65013;BME280;51715;39.432;-77.518;2023-03-21T02:09:30;100512.13;;;5.94;24.94
65013;BME280;51715;39.432;-77.518;2023-03-21T02:11:59;100513.28;;;5.91;24.77
65013;BME280;51715;39.432;-77.518;2023-03-21T02:14:31;100513.76;;;5.90;24.72
65013;BME280;51715;39.432;-77.518;2023-03-21T02:17:07;100518.99;;;6.04;24.87
65013;BME280;51715;39.432;-77.518;2023-03-21T02:20:25;100519.25;;;5.66;25.25
65013;BME280;51715;39.432;-77.518;2023-03-21T02:23:30;100523.29;;;5.74;25.90
65013;BME280;51715;39.432;-77.518;2023-03-21T02:26:37;100528.04;;;5.49;26.12
65013;BME280;51715;39.432;-77.518;2023-03-21T02:29:27;100530.41;;;5.26;26.05
65013;BME280;51715;39.432;-77.518;2023-03-21T02:32:05;100535.09;;;5.68;26.17
65013;BME280;51715;39.432;-77.518;2023-03-21T02:34:50;100538.48;;;5.62;26.09
65013;BME280;51715;39.432;-77.518;2023-03-21T02:37:21;100539.90;;;5.57;26.44
65013;BME280;51715;39.432;-77.518;2023-03-21T02:39:58;100541.92;;;5.57;26.75
65013;BME280;51715;39.432;-77.518;2023-03-21T02:42:35;100538.11;;;5.13;26.65
65013;BME280;51715;39.432;-77.518;2023-03-21T02:45:11;100538.94;;;5.06;26.89
65013;BME280;51715;39.432;-77.518;2023-03-21T02:47:47;100539.04;;;5.02;27.25
65013;BME280;51715;39.432;-77.518;2023-03-21T02:50:21;100541.75;;;4.91;27.59
65013;BME280;51715;39.432;-77.518;2023-03-21T02:52:54;100540.04;;;4.85;26.74
65013;BME280;51715;39.432;-77.518;2023-03-21T02:55:25;100539.80;;;5.18;26.41
65013;BME280;51715;39.432;-77.518;2023-03-21T02:57:56;100548.25;;;5.04;26.22
65013;BME280;51715;39.432;-77.518;2023-03-21T03:00:27;100549.10;;;5.11;25.81
65013;BME280;51715;39.432;-77.518;2023-03-21T03:02:56;100550.91;;;5.15;25.64
65013;BME280;51715;39.432;-77.518;2023-03-21T03:05:26;100555.23;;;5.10;26.24
65013;BME280;51715;39.432;-77.518;2023-03-21T03:08:05;100557.28;;;5.18;26.57
65013;BME280;51715;39.432;-77.518;2023-03-21T03:10:45;100554.46;;;4.94;26.23
65013;BME280;51715;39.432;-77.518;2023-03-21T03:13:27;100551.41;;;4.93;26.16
65013;BME280;51715;39.432;-77.518;2023-03-21T03:16:05;100552.92;;;5.16;25.98
65013;BME280;51715;39.432;-77.518;2023-03-21T03:18:45;100557.24;;;4.95;26.23
65013;BME280;51715;39.432;-77.518;2023-03-21T03:21:20;100557.51;;;4.93;26.38
65013;BME280;51715;39.432;-77.518;2023-03-21T03:23:53;100558.54;;;5.10;26.23
65013;BME280;51715;39.432;-77.518;2023-03-21T03:26:27;100558.74;;;4.78;26.42
65013;BME280;51715;39.432;-77.518;2023-03-21T03:29:00;100559.18;;;4.74;26.29
65013;BME280;51715;39.432;-77.518;2023-03-21T03:31:33;100559.85;;;4.79;26.06
65013;BME280;51715;39.432;-77.518;2023-03-21T03:34:06;100562.35;;;4.79;25.95
65013;BME280;51715;39.432;-77.518;2023-03-21T03:36:39;100564.73;;;4.73;25.88
65013;BME280;51715;39.432;-77.518;2023-03-21T03:39:11;100565.30;;;4.72;25.83
65013;BME280;51715;39.432;-77.518;2023-03-21T03:41:45;100564.17;;;4.71;25.74
65013;BME280;51715;39.432;-77.518;2023-03-21T03:44:15;100560.70;;;4.87;26.13
65013;BME280;51715;39.432;-77.518;2023-03-21T03:46:47;100556.41;;;4.80;26.35
65013;BME280;51715;39.432;-77.518;2023-03-21T03:49:21;100560.21;;;4.60;26.38
65013;BME280;51715;39.432;-77.518;2023-03-21T03:51:52;100559.56;;;4.58;25.88
65013;BME280;51715;39.432;-77.518;2023-03-21T03:54:23;100558.89;;;4.75;25.76
65013;BME280;51715;39.432;-77.518;2023-03-21T03:56:55;100563.41;;;4.69;26.04
65013;BME280;51715;39.432;-77.518;2023-03-21T03:59:24;100563.38;;;4.54;26.61
65013;BME280;51715;39.432;-77.518;2023-03-21T04:04:02;100566.74;;;4.53;25.59
65013;BME280;51715;39.432;-77.518;2023-03-21T04:06:31;100570.15;;;4.48;25.93
65013;BME280;51715;39.432;-77.518;2023-03-21T04:09:00;100564.58;;;4.41;25.84
65013;BME280;51715;39.432;-77.518;2023-03-21T04:11:28;100564.06;;;4.73;25.63
65013;BME280;51715;39.432;-77.518;2023-03-21T04:13:57;100564.27;;;4.87;26.02
65013;BME280;51715;39.432;-77.518;2023-03-21T04:16:25;100563.30;;;4.31;26.41
65013;BME280;51715;39.432;-77.518;2023-03-21T04:18:54;100562.61;;;4.31;26.85
65013;BME280;51715;39.432;-77.518;2023-03-21T04:21:22;100568.14;;;4.31;27.01
65013;BME280;51715;39.432;-77.518;2023-03-21T04:23:51;100565.67;;;4.08;26.85
65013;BME280;51715;39.432;-77.518;2023-03-21T04:26:19;100564.87;;;4.31;27.53
65013;BME280;51715;39.432;-77.518;2023-03-21T04:28:48;100568.59;;;4.08;27.55
65013;BME280;51715;39.432;-77.518;2023-03-21T04:31:17;100569.94;;;4.14;27.28
65013;BME280;51715;39.432;-77.518;2023-03-21T04:33:46;100568.71;;;4.13;27.11
65013;BME280;51715;39.432;-77.518;2023-03-21T04:36:14;100566.48;;;4.19;26.78
65013;BME280;51715;39.432;-77.518;2023-03-21T04:38:42;100573.04;;;4.09;27.23
65013;BME280;51715;39.432;-77.518;2023-03-21T04:41:10;100578.96;;;3.93;27.04
65013;BME280;51715;39.432;-77.518;2023-03-21T04:43:37;100583.77;;;4.08;27.05
65013;BME280;51715;39.432;-77.518;2023-03-21T04:46:06;100589.66;;;4.16;26.88
65013;BME280;51715;39.432;-77.518;2023-03-21T04:48:34;100593.85;;;3.91;27.01
65013;BME280;51715;39.432;-77.518;2023-03-21T04:51:03;100599.57;;;4.16;27.56
65013;BME280;51715;39.432;-77.518;2023-03-21T04:53:31;100596.26;;;4.00;28.16
65013;BME280;51715;39.432;-77.518;2023-03-21T04:56:00;100596.78;;;3.62;28.73
65013;BME280;51715;39.432;-77.518;2023-03-21T04:58:28;100595.58;;;3.90;29.20
65013;BME280;51715;39.432;-77.518;2023-03-21T05:00:57;100594.21;;;3.92;28.94
65013;BME280;51715;39.432;-77.518;2023-03-21T05:03:26;100595.11;;;3.68;29.14
65013;BME280;51715;39.432;-77.518;2023-03-21T05:05:54;100594.33;;;3.65;28.89
65013;BME280;51715;39.432;-77.518;2023-03-21T05:08:22;100596.30;;;3.19;29.06
65013;BME280;51715;39.432;-77.518;2023-03-21T05:10:50;100592.95;;;3.47;29.77
65013;BME280;51715;39.432;-77.518;2023-03-21T05:13:19;100593.12;;;3.34;30.19
65013;BME280;51715;39.432;-77.518;2023-03-21T05:15:47;100589.84;;;3.48;29.77
65013;BME280;51715;39.432;-77.518;2023-03-21T05:18:15;100594.53;;;3.33;30.01
65013;BME280;51715;39.432;-77.518;2023-03-21T05:20:43;100594.54;;;3.24;29.83
65013;BME280;51715;39.432;-77.518;2023-03-21T05:23:12;100593.86;;;3.31;29.94
65013;BME280;51715;39.432;-77.518;2023-03-21T05:25:40;100591.54;;;2.89;30.17
65013;BME280;51715;39.432;-77.518;2023-03-21T05:28:08;100588.13;;;3.26;29.63
65013;BME280;51715;39.432;-77.518;2023-03-21T05:30:38;100587.74;;;3.36;29.37
65013;BME280;51715;39.432;-77.518;2023-03-21T05:33:07;100591.13;;;3.47;28.72
65013;BME280;51715;39.432;-77.518;2023-03-21T05:35:35;100593.11;;;3.47;29.20
65013;BME280;51715;39.432;-77.518;2023-03-21T05:38:03;100595.52;;;3.47;28.87
65013;BME280;51715;39.432;-77.518;2023-03-21T05:40:32;100596.78;;;3.21;28.73
65013;BME280;51715;39.432;-77.518;2023-03-21T05:43:01;100595.99;;;3.54;28.65
65013;BME280;51715;39.432;-77.518;2023-03-21T05:45:29;100597.81;;;3.60;28.60
65013;BME280;51715;39.432;-77.518;2023-03-21T05:47:57;100598.62;;;3.36;28.21
65013;BME280;51715;39.432;-77.518;2023-03-21T05:50:25;100607.10;;;3.64;27.99
65013;BME280;51715;39.432;-77.518;2023-03-21T05:52:54;100609.96;;;3.17;27.70
65013;BME280;51715;39.432;-77.518;2023-03-21T05:55:22;100613.02;;;3.66;27.68
65013;BME280;51715;39.432;-77.518;2023-03-21T05:57:50;100616.00;;;3.37;27.79
65013;BME280;51715;39.432;-77.518;2023-03-21T06:00:19;100616.56;;;3.35;28.45
65013;BME280;51715;39.432;-77.518;2023-03-21T06:02:47;100610.69;;;2.91;29.48
65013;BME280;51715;39.432;-77.518;2023-03-21T06:05:15;100613.53;;;2.93;29.83
65013;BME280;51715;39.432;-77.518;2023-03-21T06:07:43;100616.23;;;2.78;29.64
65013;BME280;51715;39.432;-77.518;2023-03-21T06:10:11;100616.95;;;3.09;29.37
65013;BME280;51715;39.432;-77.518;2023-03-21T06:12:39;100618.61;;;3.14;28.93
65013;BME280;51715;39.432;-77.518;2023-03-21T06:15:08;100618.74;;;3.13;28.47
65013;BME280;51715;39.432;-77.518;2023-03-21T06:17:37;100621.38;;;3.19;28.40
65013;BME280;51715;39.432;-77.518;2023-03-21T06:20:06;100619.62;;;3.21;28.36
65013;BME280;51715;39.432;-77.518;2023-03-21T06:22:35;100618.16;;;3.18;28.43
65013;BME280;51715;39.432;-77.518;2023-03-21T06:25:04;100618.94;;;3.21;28.80
65013;BME280;51715;39.432;-77.518;2023-03-21T06:27:32;100614.79;;;3.19;29.10
65013;BME280;51715;39.432;-77.518;2023-03-21T06:30:01;100616.53;;;3.16;28.77
65013;BME280;51715;39.432;-77.518;2023-03-21T06:32:30;100614.13;;;3.10;28.56
65013;BME280;51715;39.432;-77.518;2023-03-21T06:34:58;100614.08;;;3.04;29.16
65013;BME280;51715;39.432;-77.518;2023-03-21T06:37:27;100618.85;;;2.92;29.36
65013;BME280;51715;39.432;-77.518;2023-03-21T06:39:55;100620.38;;;2.67;29.27
65013;BME280;51715;39.432;-77.518;2023-03-21T06:42:24;100624.22;;;2.94;28.79
65013;BME280;51715;39.432;-77.518;2023-03-21T06:44:52;100628.85;;;2.95;28.51
65013;BME280;51715;39.432;-77.518;2023-03-21T06:47:20;100627.66;;;2.94;28.70
65013;BME280;51715;39.432;-77.518;2023-03-21T06:49:48;100630.85;;;2.93;28.72
65013;BME280;51715;39.432;-77.518;2023-03-21T06:52:16;100631.99;;;3.12;28.84
65013;BME280;51715;39.432;-77.518;2023-03-21T06:54:44;100634.11;;;2.89;28.77
65013;BME280;51715;39.432;-77.518;2023-03-21T06:57:12;100636.28;;;2.86;29.12
65013;BME280;51715;39.432;-77.518;2023-03-21T06:59:40;100638.67;;;2.83;29.35
65013;BME280;51715;39.432;-77.518;2023-03-21T07:02:09;100640.34;;;2.82;29.34
65013;BME280;51715;39.432;-77.518;2023-03-21T07:04:37;100635.52;;;2.77;29.09
65013;BME280;51715;39.432;-77.518;2023-03-21T07:07:05;100633.25;;;2.72;28.93
65013;BME280;51715;39.432;-77.518;2023-03-21T07:09:33;100635.09;;;2.73;28.75
65013;BME280;51715;39.432;-77.518;2023-03-21T07:12:01;100630.66;;;2.70;28.78
65013;BME280;51715;39.432;-77.518;2023-03-21T07:14:29;100630.67;;;2.60;29.33
65013;BME280;51715;39.432;-77.518;2023-03-21T07:16:57;100630.27;;;2.81;29.48
65013;BME280;51715;39.432;-77.518;2023-03-21T07:19:25;100633.03;;;2.55;29.51
65013;BME280;51715;39.432;-77.518;2023-03-21T07:21:54;100633.72;;;2.47;30.00
65013;BME280;51715;39.432;-77.518;2023-03-21T07:24:22;100632.99;;;2.37;29.31
65013;BME280;51715;39.432;-77.518;2023-03-21T07:26:50;100632.40;;;2.40;29.08
65013;BME280;51715;39.432;-77.518;2023-03-21T07:29:18;100628.80;;;2.27;30.51
65013;BME280;51715;39.432;-77.518;2023-03-21T07:31:46;100629.03;;;2.52;30.89
65013;BME280;51715;39.432;-77.518;2023-03-21T07:34:14;100626.71;;;1.83;31.60
65013;BME280;51715;39.432;-77.518;2023-03-21T07:36:43;100627.83;;;1.95;31.02
65013;BME280;51715;39.432;-77.518;2023-03-21T07:39:11;100627.74;;;2.29;29.92
65013;BME280;51715;39.432;-77.518;2023-03-21T07:41:39;100627.79;;;2.04;30.92
65013;BME280;51715;39.432;-77.518;2023-03-21T07:44:07;100630.04;;;1.67;30.96
65013;BME280;51715;39.432;-77.518;2023-03-21T07:46:40;100630.67;;;2.15;31.05
65013;BME280;51715;39.432;-77.518;2023-03-21T07:49:08;100630.12;;;2.17;31.24
65013;BME280;51715;39.432;-77.518;2023-03-21T07:51:36;100630.97;;;1.93;30.03
65013;BME280;51715;39.432;-77.518;2023-03-21T07:54:06;100631.11;;;2.06;30.49
65013;BME280;51715;39.432;-77.518;2023-03-21T07:56:35;100631.00;;;2.10;30.25
65013;BME280;51715;39.432;-77.518;2023-03-21T07:59:03;100628.52;;;1.98;30.59
65013;BME280;51715;39.432;-77.518;2023-03-21T08:01:31;100630.90;;;2.00;31.26
65013;BME280;51715;39.432;-77.518;2023-03-21T08:04:00;100634.27;;;1.94;31.20
65013;BME280;51715;39.432;-77.518;2023-03-21T08:06:29;100632.15;;;2.10;30.72
65013;BME280;51715;39.432;-77.518;2023-03-21T08:08:57;100632.77;;;2.13;30.79
65013;BME280;51715;39.432;-77.518;2023-03-21T08:11:25;100632.04;;;2.33;30.04
65013;BME280;51715;39.432;-77.518;2023-03-21T08:13:53;100632.83;;;2.45;29.44
65013;BME280;51715;39.432;-77.518;2023-03-21T08:16:21;100630.31;;;2.16;29.60
65013;BME280;51715;39.432;-77.518;2023-03-21T08:18:49;100629.41;;;2.24;30.37
65013;BME280;51715;39.432;-77.518;2023-03-21T08:21:18;100632.81;;;2.05;30.12
65013;BME280;51715;39.432;-77.518;2023-03-21T08:23:47;100632.15;;;2.28;30.27
65013;BME280;51715;39.432;-77.518;2023-03-21T08:26:15;100633.20;;;2.04;30.03
65013;BME280;51715;39.432;-77.518;2023-03-21T08:28:44;100631.22;;;2.20;30.35
65013;BME280;51715;39.432;-77.518;2023-03-21T08:31:12;100631.70;;;2.04;30.81
65013;BME280;51715;39.432;-77.518;2023-03-21T08:33:41;100632.81;;;1.87;30.69
65013;BME280;51715;39.432;-77.518;2023-03-21T08:36:10;100630.95;;;2.08;29.81
65013;BME280;51715;39.432;-77.518;2023-03-21T08:38:38;100633.87;;;1.94;29.50
65013;BME280;51715;39.432;-77.518;2023-03-21T08:41:06;100635.52;;;1.92;30.42
65013;BME280;51715;39.432;-77.518;2023-03-21T08:43:34;100633.32;;;2.02;30.16
65013;BME280;51715;39.432;-77.518;2023-03-21T08:46:02;100637.56;;;2.05;29.87
65013;BME280;51715;39.432;-77.518;2023-03-21T08:48:30;100636.14;;;2.10;29.49
65013;BME280;51715;39.432;-77.518;2023-03-21T08:50:59;100637.33;;;1.88;29.37
65013;BME280;51715;39.432;-77.518;2023-03-21T08:53:28;100643.18;;;1.71;30.07
65013;BME280;51715;39.432;-77.518;2023-03-21T08:55:56;100641.83;;;1.48;29.88
65013;BME280;51715;39.432;-77.518;2023-03-21T08:58:25;100644.71;;;1.82;29.61
65013;BME280;51715;39.432;-77.518;2023-03-21T09:00:54;100645.03;;;2.05;29.83
65013;BME280;51715;39.432;-77.518;2023-03-21T09:03:23;100644.38;;;1.82;30.08
65013;BME280;51715;39.432;-77.518;2023-03-21T09:05:52;100645.19;;;1.93;30.07
65013;BME280;51715;39.432;-77.518;2023-03-21T09:08:20;100645.00;;;1.95;30.15
65013;BME280;51715;39.432;-77.518;2023-03-21T09:10:48;100647.99;;;1.93;30.34
65013;BME280;51715;39.432;-77.518;2023-03-21T09:13:16;100647.20;;;1.96;29.85
65013;BME280;51715;39.432;-77.518;2023-03-21T09:15:44;100646.65;;;1.94;29.52
65013;BME280;51715;39.432;-77.518;2023-03-21T09:18:12;100649.45;;;1.89;29.58
65013;BME280;51715;39.432;-77.518;2023-03-21T09:20:43;100649.58;;;1.82;30.37
65013;BME280;51715;39.432;-77.518;2023-03-21T09:23:13;100656.74;;;1.49;29.85
65013;BME280;51715;39.432;-77.518;2023-03-21T09:25:44;100658.32;;;1.79;29.91
65013;BME280;51715;39.432;-77.518;2023-03-21T09:28:12;100663.54;;;1.85;29.86
65013;BME280;51715;39.432;-77.518;2023-03-21T09:30:42;100666.95;;;1.89;29.52
65013;BME280;51715;39.432;-77.518;2023-03-21T09:33:10;100671.68;;;1.71;29.37
65013;BME280;51715;39.432;-77.518;2023-03-21T09:35:38;100676.01;;;1.82;30.07
65013;BME280;51715;39.432;-77.518;2023-03-21T09:38:06;100680.22;;;1.61;30.91
65013;BME280;51715;39.432;-77.518;2023-03-21T09:40:50;100684.96;;;1.58;31.31
65013;BME280;51715;39.432;-77.518;2023-03-21T09:43:34;100692.05;;;1.58;31.24
65013;BME280;51715;39.432;-77.518;2023-03-21T09:46:09;100694.86;;;1.67;30.78
65013;BME280;51715;39.432;-77.518;2023-03-21T09:48:45;100700.80;;;1.76;30.39
65013;BME280;51715;39.432;-77.518;2023-03-21T09:51:17;100704.40;;;1.67;30.45
65013;BME280;51715;39.432;-77.518;2023-03-21T09:53:48;100704.58;;;1.70;30.37
65013;BME280;51715;39.432;-77.518;2023-03-21T09:56:17;100708.49;;;1.83;30.89
65013;BME280;51715;39.432;-77.518;2023-03-21T09:58:48;100710.64;;;1.48;31.01
65013;BME280;51715;39.432;-77.518;2023-03-21T10:01:21;100710.44;;;1.33;31.37
65013;BME280;51715;39.432;-77.518;2023-03-21T10:03:52;100712.68;;;1.40;30.76
65013;BME280;51715;39.432;-77.518;2023-03-21T10:06:22;100711.64;;;1.40;30.11
65013;BME280;51715;39.432;-77.518;2023-03-21T10:08:51;100716.19;;;1.41;30.08
65013;BME280;51715;39.432;-77.518;2023-03-21T10:11:23;100718.49;;;1.43;30.01
65013;BME280;51715;39.432;-77.518;2023-03-21T10:13:54;100725.74;;;1.49;30.41
65013;BME280;51715;39.432;-77.518;2023-03-21T10:16:28;100723.89;;;1.42;30.78
65013;BME280;51715;39.432;-77.518;2023-03-21T10:18:59;100725.91;;;1.26;31.20
65013;BME280;51715;39.432;-77.518;2023-03-21T10:21:30;100724.62;;;1.47;31.35
65013;BME280;51715;39.432;-77.518;2023-03-21T10:24:00;100728.57;;;1.49;31.22
65013;BME280;51715;39.432;-77.518;2023-03-21T10:26:29;100731.33;;;1.29;30.88
65013;BME280;51715;39.432;-77.518;2023-03-21T10:29:00;100734.01;;;1.17;30.76
65013;BME280;51715;39.432;-77.518;2023-03-21T10:31:29;100737.09;;;1.36;30.78
65013;BME280;51715;39.432;-77.518;2023-03-21T10:34:02;100738.99;;;0.66;31.60
65013;BME280;51715;39.432;-77.518;2023-03-21T10:36:35;100739.12;;;1.10;31.85
65013;BME280;51715;39.432;-77.518;2023-03-21T10:39:04;100743.55;;;0.91;31.81
65013;BME280;51715;39.432;-77.518;2023-03-21T10:41:33;100745.01;;;1.30;31.30
65013;BME280;51715;39.432;-77.518;2023-03-21T10:44:06;100748.91;;;0.79;31.06
65013;BME280;51715;39.432;-77.518;2023-03-21T10:46:36;100751.62;;;1.29;31.50
65013;BME280;51715;39.432;-77.518;2023-03-21T10:49:06;100758.98;;;1.28;31.50
65013;BME280;51715;39.432;-77.518;2023-03-21T10:51:36;100760.81;;;1.17;32.09
65013;BME280;51715;39.432;-77.518;2023-03-21T10:54:10;100766.18;;;0.89;31.42
65013;BME280;51715;39.432;-77.518;2023-03-21T10:56:46;100766.69;;;1.25;31.43
65013;BME280;51715;39.432;-77.518;2023-03-21T10:59:20;100770.62;;;0.86;30.94
65013;BME280;51715;39.432;-77.518;2023-03-21T11:01:51;100776.26;;;0.95;30.56
65013;BME280;51715;39.432;-77.518;2023-03-21T11:04:25;100776.04;;;1.58;30.42
65013;BME280;51715;39.432;-77.518;2023-03-21T11:06:57;100782.64;;;1.16;30.83
65013;BME280;51715;39.432;-77.518;2023-03-21T11:09:41;100782.46;;;1.48;31.00
65013;BME280;51715;39.432;-77.518;2023-03-21T11:12:12;100788.64;;;1.68;30.95
65013;BME280;51715;39.432;-77.518;2023-03-21T11:14:43;100789.83;;;1.21;30.99
65013;BME280;51715;39.432;-77.518;2023-03-21T11:17:22;100786.93;;;1.51;30.96
65013;BME280;51715;39.432;-77.518;2023-03-21T11:19:53;100786.86;;;1.25;31.25
65013;BME280;51715;39.432;-77.518;2023-03-21T11:22:26;100788.84;;;1.26;30.42
65013;BME280;51715;39.432;-77.518;2023-03-21T11:24:59;100794.37;;;1.19;31.36
65013;BME280;51715;39.432;-77.518;2023-03-21T11:27:28;100793.97;;;1.22;31.44
65013;BME280;51715;39.432;-77.518;2023-03-21T11:30:01;100795.88;;;1.19;30.95
65013;BME280;51715;39.432;-77.518;2023-03-21T11:32:33;100798.16;;;1.27;30.63
65013;BME280;51715;39.432;-77.518;2023-03-21T11:35:04;100801.18;;;1.33;31.40
65013;BME280;51715;39.432;-77.518;2023-03-21T11:37:38;100809.26;;;1.38;31.80
65013;BME280;51715;39.432;-77.518;2023-03-21T11:40:20;100816.73;;;1.30;31.55
65013;BME280;51715;39.432;-77.518;2023-03-21T11:42:52;100819.46;;;1.21;31.12
65013;BME280;51715;39.432;-77.518;2023-03-21T11:45:22;100828.54;;;1.57;30.49
65013;BME280;51715;39.432;-77.518;2023-03-21T11:47:53;100833.80;;;1.69;30.40
65013;BME280;51715;39.432;-77.518;2023-03-21T11:50:27;100838.93;;;1.84;30.20
65013;BME280;51715;39.432;-77.518;2023-03-21T11:53:10;100843.36;;;1.93;30.72
65013;BME280;51715;39.432;-77.518;2023-03-21T11:55:55;100847.36;;;2.18;30.49
65013;BME280;51715;39.432;-77.518;2023-03-21T11:58:36;100852.13;;;2.22;30.65
65013;BME280;51715;39.432;-77.518;2023-03-21T12:01:14;100858.87;;;2.32;30.08
65013;BME280;51715;39.432;-77.518;2023-03-21T12:03:54;100861.30;;;2.52;30.94
65013;BME280;51715;39.432;-77.518;2023-03-21T12:06:30;100865.46;;;2.83;30.33
65013;BME280;51715;39.432;-77.518;2023-03-21T12:09:10;100868.33;;;2.93;30.37
65013;BME280;51715;39.432;-77.518;2023-03-21T12:11:55;100874.83;;;3.40;29.37
65013;BME280;51715;39.432;-77.518;2023-03-21T12:14:34;100878.09;;;3.76;30.02
65013;BME280;51715;39.432;-77.518;2023-03-21T12:17:13;100891.50;;;3.99;29.46
65013;BME280;51715;39.432;-77.518;2023-03-21T12:19:55;100892.68;;;4.23;29.22
65013;BME280;51715;39.432;-77.518;2023-03-21T12:22:33;100897.84;;;4.51;29.43
65013;BME280;51715;39.432;-77.518;2023-03-21T12:25:10;100903.32;;;4.87;29.49
65013;BME280;51715;39.432;-77.518;2023-03-21T12:27:45;100907.80;;;5.18;28.10
65013;BME280;51715;39.432;-77.518;2023-03-21T12:30:27;100911.80;;;5.63;27.77
65013;BME280;51715;39.432;-77.518;2023-03-21T12:33:13;100915.44;;;6.09;27.39
65013;BME280;51715;39.432;-77.518;2023-03-21T12:35:52;100914.48;;;6.13;27.01
65013;BME280;51715;39.432;-77.518;2023-03-21T12:38:24;100918.20;;;6.51;27.05
65013;BME280;51715;39.432;-77.518;2023-03-21T12:41:09;100917.15;;;6.82;27.26
65013;BME280;51715;39.432;-77.518;2023-03-21T12:43:45;100913.37;;;6.80;27.12
65013;BME280;51715;39.432;-77.518;2023-03-21T12:46:20;100913.00;;;6.71;26.72
65013;BME280;51715;39.432;-77.518;2023-03-21T12:48:52;100912.97;;;7.41;26.76
65013;BME280;51715;39.432;-77.518;2023-03-21T12:51:28;100916.90;;;7.61;24.92
65013;BME280;51715;39.432;-77.518;2023-03-21T12:54:03;100914.99;;;8.01;24.81
65013;BME280;51715;39.432;-77.518;2023-03-21T12:56:39;100911.33;;;8.53;23.96
65013;BME280;51715;39.432;-77.518;2023-03-21T12:59:22;100912.83;;;8.96;24.38
65013;BME280;51715;39.432;-77.518;2023-03-21T13:01:56;100916.47;;;9.47;24.12
65013;BME280;51715;39.432;-77.518;2023-03-21T13:04:37;100915.42;;;10.06;22.57